Time;durP1;ratioP1;P1;durP2;ratioP2;P2;SDS_P1;SDS_P2;PMS_P1;PMS_P2;Temp;Humidity;BMP_temperature;BMP_pressure;BME280_temperature;BME280_humidity;BME280_pressure;Samples;Min_cycle;Max_cycle;Signal;HPM_P1;HPM_P2
2023/07/17 00:00:05;;;;;;;6.80;6.20;;;;;;;17.45;85.68;100955.50;6063647;23;20098;-69
2023/07/17 00:02:32;;;;;;;7.97;6.18;;;;;;;17.08;85.63;100900.00;6089169;23;20084;-69
2023/07/17 00:04:58;;;;;;;6.38;5.88;;;;;;;17.19;85.29;100911.56;6113340;23;20025;-70
2023/07/17 00:07:25;;;;;;;6.38;5.97;;;;;;;17.34;84.64;100945.72;6109574;23;20648;-68
2023/07/17 00:09:52;;;;;;;6.88;6.25;;;;;;;17.11;85.11;100909.50;6086220;23;20037;-69
2023/07/17 00:12:18;;;;;;;6.68;6.10;;;;;;;17.40;84.50;100912.59;6112233;23;20031;-69
2023/07/17 00:14:45;;;;;;;6.63;6.18;;;;;;;17.69;83.48;100925.38;6105542;23;20580;-69
2023/07/17 00:17:12;;;;;;;6.55;5.95;;;;;;;17.80;82.34;100920.06;6084587;23;20045;-69
2023/07/17 00:19:39;;;;;;;6.03;5.63;;;;;;;17.80;84.45;100941.31;6109005;23;20025;-68
2023/07/17 00:22:06;;;;;;;6.22;5.82;;;;;;;17.81;84.72;100952.78;6110877;23;20546;-68
2023/07/17 00:24:33;;;;;;;6.97;6.38;;;;;;;17.80;86.78;100967.88;6111071;23;20448;-70
2023/07/17 00:27:01;;;;;;;7.57;5.97;;;;;;;17.60;86.47;100926.09;6111981;23;20005;-70
2023/07/17 00:29:30;;;;;;;6.65;6.05;;;;;;;17.80;87.68;100999.72;6112441;23;20577;-69
2023/07/17 00:31:57;;;;;;;6.80;6.05;;;;;;;17.69;87.17;100976.66;6069141;23;20089;-69
2023/07/17 00:34:24;;;;;;;6.15;5.75;;;;;;;17.79;86.67;101003.31;6115641;23;20103;-70
2023/07/17 00:36:50;;;;;;;6.20;5.80;;;;;;;17.76;86.47;100992.97;6082000;23;20026;-68
2023/07/17 00:39:20;;;;;;;5.65;5.20;;;;;;;17.67;86.60;100983.88;6110160;23;20078;-69
2023/07/17 00:41:49;;;;;;;6.75;6.15;;;;;;;17.59;87.03;100991.59;6109424;23;20529;-68
2023/07/17 00:44:16;;;;;;;10.02;5.85;;;;;;;17.60;87.04;101003.03;6105633;23;20089;-70
2023/07/17 00:46:43;;;;;;;6.53;6.03;;;;;;;17.58;87.12;101000.53;6086995;23;20045;-70
2023/07/17 00:49:11;;;;;;;5.90;5.50;;;;;;;17.52;87.78;101007.16;6112153;23;20511;-69
2023/07/17 00:51:40;;;;;;;6.20;5.80;;;;;;;17.15;88.62;100970.13;6086232;23;20018;-69
2023/07/17 00:54:08;;;;;;;5.97;5.50;;;;;;;16.85;89.10;100957.38;6113860;23;20097;-68
2023/07/17 00:56:37;;;;;;;5.95;5.55;;;;;;;17.33;90.40;101036.88;6084818;23;20010;-68
2023/07/17 00:59:04;;;;;;;6.55;6.05;;;;;;;16.90;90.58;100989.72;6113706;23;20021;-69
2023/07/17 01:01:31;;;;;;;6.47;5.97;;;;;;;16.75;91.59;100986.34;6088521;23;20518;-69
2023/07/17 01:04:02;;;;;;;6.18;5.63;;;;;;;17.21;92.44;101074.94;6066817;23;20350;-69
2023/07/17 01:06:28;;;;;;;6.10;5.63;;;;;;;17.10;93.60;101074.91;6115092;23;20085;-69
2023/07/17 01:08:55;;;;;;;6.75;6.25;;;;;;;17.24;96.26;101087.97;6117668;23;20084;-69
2023/07/17 01:11:21;;;;;;;6.88;5.80;;;;;;;16.86;96.67;101019.22;6091023;23;20021;-70
2023/07/17 01:13:49;;;;;;;6.10;5.70;;;;;;;16.91;95.77;101033.81;6117671;23;20040;-69
2023/07/17 01:16:16;;;;;;;6.60;5.97;;;;;;;17.12;94.83;101072.97;6090898;23;20014;-69
2023/07/17 01:18:43;;;;;;;6.28;5.72;;;;;;;16.68;95.52;100995.72;6114807;23;20017;-69
2023/07/17 01:21:12;;;;;;;6.80;6.20;;;;;;;16.81;97.40;101026.63;6112993;23;20369;-68
2023/07/17 01:23:39;;;;;;;6.03;5.63;;;;;;;16.94;98.23;101059.25;6111302;23;20037;-68
2023/07/17 01:26:13;;;;;;;6.93;5.90;;;;;;;16.95;95.72;101053.00;6114252;23;20084;-68
2023/07/17 01:28:40;;;;;;;6.15;5.75;;;;;;;16.77;94.10;101015.38;6113354;23;20025;-69
2023/07/17 01:31:06;;;;;;;5.90;5.50;;;;;;;16.51;92.90;100961.66;6115548;23;20022;-69
2023/07/17 01:33:33;;;;;;;5.72;5.43;;;;;;;16.89;92.14;101009.22;6088148;23;20018;-69
2023/07/17 01:36:01;;;;;;;6.25;5.75;;;;;;;17.05;91.86;101050.50;6117276;23;20026;-69
2023/07/17 01:38:28;;;;;;;6.30;5.80;;;;;;;16.67;90.07;100988.72;6117693;23;20018;-69
2023/07/17 01:40:54;;;;;;;5.90;5.50;;;;;;;16.59;89.49;100969.03;6115183;23;20245;-69
2023/07/17 01:43:20;;;;;;;5.97;5.60;;;;;;;17.04;88.03;101032.91;6115041;23;20018;-71
2023/07/17 01:45:47;;;;;;;6.18;5.57;;;;;;;17.03;88.56;101029.41;6089474;23;20036;-68
2023/07/17 01:48:14;;;;;;;7.53;6.78;;;;;;;16.87;87.97;101015.59;6114212;23;20456;-69
2023/07/17 01:50:41;;;;;;;6.47;5.95;;;;;;;16.77;88.02;100988.03;6113960;23;20094;-70
2023/07/17 01:53:07;;;;;;;6.53;6.07;;;;;;;17.05;87.71;101030.13;6108404;23;20017;-68
2023/07/17 01:55:34;;;;;;;6.43;6.03;;;;;;;16.65;87.51;100969.44;6091346;23;20045;-69
2023/07/17 01:58:00;;;;;;;6.10;5.70;;;;;;;17.05;87.42;101021.34;6091762;23;20092;-68
2023/07/17 02:00:29;;;;;;;5.80;5.40;;;;;;;16.69;87.50;100970.88;6121008;23;20033;-69
2023/07/17 02:02:56;;;;;;;6.70;6.20;;;;;;;16.67;87.45;100971.97;6090068;23;20085;-69
2023/07/17 02:05:23;;;;;;;6.28;5.78;;;;;;;16.65;87.95;100984.50;6117855;23;20018;-69
2023/07/17 02:07:49;;;;;;;6.32;5.60;;;;;;;17.02;88.01;101046.28;6113192;23;20084;-69
2023/07/17 02:10:15;;;;;;;5.93;5.60;;;;;;;16.61;88.59;100977.72;6113977;23;20034;-70
2023/07/17 02:12:42;;;;;;;6.05;5.65;;;;;;;16.96;90.26;101067.94;6110079;23;20033;-70
2023/07/17 02:15:11;;;;;;;5.55;5.22;;;;;;;16.93;91.95;101092.88;6112972;23;20572;-69
2023/07/17 02:17:38;;;;;;;6.22;5.63;;;;;;;16.92;91.30;101093.84;6087131;23;20009;-69
2023/07/17 02:20:10;;;;;;;5.68;5.28;;;;;;;15.94;91.44;100942.75;6118983;23;20029;-69
2023/07/17 02:22:37;;;;;;;7.07;5.53;;;;;;;16.60;91.35;101051.06;6116348;23;20338;-69
2023/07/17 02:25:05;;;;;;;7.13;6.43;;;;;;;16.81;92.02;101092.88;6123203;23;20012;-69
2023/07/17 02:27:33;;;;;;;5.97;5.57;;;;;;;16.46;92.52;101044.13;6115098;23;20013;-69
2023/07/17 02:29:59;;;;;;;8.18;5.72;;;;;;;16.79;92.08;101084.19;6115441;23;20119;-68
2023/07/17 02:32:29;;;;;;;6.40;6.00;;;;;;;16.78;91.20;101070.09;6116517;23;20045;-68
2023/07/17 02:34:56;;;;;;;5.85;5.45;;;;;;;16.48;91.07;101028.97;6111335;23;20121;-68
2023/07/17 02:37:22;;;;;;;5.40;5.05;;;;;;;16.72;91.10;101059.94;6111730;23;20591;-68
2023/07/17 02:39:49;;;;;;;6.03;5.57;;;;;;;16.50;91.53;101034.16;6112949;23;20026;-70
2023/07/17 02:42:15;;;;;;;6.93;6.22;;;;;;;16.48;91.44;101036.91;6110403;23;20017;-68
2023/07/17 02:44:44;;;;;;;6.00;5.50;;;;;;;16.55;91.73;101050.56;6112607;23;20086;-70
2023/07/17 02:47:11;;;;;;;6.25;5.60;;;;;;;16.48;92.16;101062.56;6114103;23;20037;-71
2023/07/17 02:49:38;;;;;;;5.90;5.47;;;;;;;15.51;92.92;100906.03;6089072;23;20032;-68
2023/07/17 02:52:05;;;;;;;8.13;5.32;;;;;;;16.06;92.75;101009.03;6110767;23;20017;-69
2023/07/17 02:54:32;;;;;;;5.75;5.45;;;;;;;16.11;92.78;101028.06;6089685;23;20026;-69
2023/07/17 02:56:58;;;;;;;5.95;5.45;;;;;;;16.56;93.04;101113.19;6087694;23;20084;-69
2023/07/17 02:59:25;;;;;;;5.88;5.47;;;;;;;16.26;93.54;101068.53;6118150;23;20503;-70
2023/07/17 03:01:51;;;;;;;6.15;5.75;;;;;;;16.52;93.47;101109.91;6114975;23;20027;-69
2023/07/17 03:04:18;;;;;;;5.68;5.28;;;;;;;16.49;93.12;101110.13;6094186;23;20040;-69
2023/07/17 03:06:44;;;;;;;5.85;5.55;;;;;;;16.39;92.78;101100.28;6091004;23;20021;-70
2023/07/17 03:09:11;;;;;;;6.20;5.60;;;;;;;15.95;92.71;101036.22;6111560;23;20046;-69
2023/07/17 03:11:37;;;;;;;5.60;5.20;;;;;;;15.32;93.86;100975.22;6081787;23;20045;-69
2023/07/17 03:14:04;;;;;;;6.72;5.70;;;;;;;16.05;94.38;101097.34;6090207;23;20036;-69
2023/07/17 03:16:30;;;;;;;5.63;5.32;;;;;;;15.85;94.60;101075.72;6115178;23;20017;-71
2023/07/17 03:18:58;;;;;;;5.72;5.32;;;;;;;15.91;96.19;101115.00;6113718;23;20018;-69
2023/07/17 03:21:24;;;;;;;6.03;5.63;;;;;;;15.34;97.22;101033.28;6111785;23;20023;-69
2023/07/17 03:23:51;;;;;;;5.95;5.53;;;;;;;15.73;98.75;101113.59;6112368;23;20054;-69
2023/07/17 03:26:17;;;;;;;5.50;5.20;;;;;;;15.59;98.86;101100.41;6116094;23;20083;-69
2023/07/17 03:28:45;;;;;;;5.80;5.50;;;;;;;15.67;98.77;101119.28;6080456;23;20062;-69
2023/07/17 03:31:12;;;;;;;5.70;5.30;;;;;;;15.62;99.46;101121.41;6086416;23;20632;-69
2023/07/17 03:33:39;;;;;;;6.28;5.78;;;;;;;15.27;100.00;101084.88;6106765;23;20041;-69
2023/07/17 03:36:06;;;;;;;5.80;5.50;;;;;;;15.24;100.00;101079.81;6111398;23;20033;-69
2023/07/17 03:38:33;;;;;;;5.47;5.18;;;;;;;15.55;100.00;101131.50;6079336;23;20026;-69
2023/07/17 03:40:59;;;;;;;5.60;5.30;;;;;;;15.54;100.00;101135.97;6108624;23;20025;-69
2023/07/17 03:43:25;;;;;;;5.88;5.47;;;;;;;15.58;100.00;101143.72;6078632;23;20018;-69
2023/07/17 03:45:52;;;;;;;5.85;5.47;;;;;;;15.51;99.97;101135.31;6112643;23;20051;-69
2023/07/17 03:48:18;;;;;;;6.15;5.75;;;;;;;15.14;100.00;101090.97;6106249;23;20034;-69
2023/07/17 03:50:47;;;;;;;5.63;5.32;;;;;;;15.29;100.00;101128.78;6091433;23;20038;-69
2023/07/17 03:53:13;;;;;;;6.13;5.53;;;;;;;15.40;100.00;101153.69;6114353;23;20025;-70
2023/07/17 03:55:40;;;;;;;5.90;5.50;;;;;;;15.38;100.00;101156.44;6105300;23;20029;-69
2023/07/17 03:58:07;;;;;;;5.63;5.20;;;;;;;15.41;100.00;101147.44;6109041;23;20037;-68
2023/07/17 04:00:33;;;;;;;5.63;5.32;;;;;;;15.36;100.00;101142.47;6108445;23;20039;-69
2023/07/17 04:02:59;;;;;;;5.60;5.30;;;;;;;15.26;100.00;101128.16;6109723;23;20142;-69
2023/07/17 04:05:26;;;;;;;5.47;5.18;;;;;;;15.45;100.00;101156.88;6110823;23;20029;-69
2023/07/17 04:07:53;;;;;;;5.78;5.38;;;;;;;15.48;100.00;101162.81;6109927;23;20253;-69
2023/07/17 04:10:19;;;;;;;5.70;5.30;;;;;;;15.16;100.00;101097.00;6109746;23;20097;-69
2023/07/17 04:12:46;;;;;;;6.18;5.35;;;;;;;15.33;100.00;101119.72;6106516;23;20023;-69
2023/07/17 04:15:12;;;;;;;6.10;5.40;;;;;;;15.22;99.98;101093.13;6110669;23;20843;-69
2023/07/17 04:17:39;;;;;;;5.38;5.07;;;;;;;16.23;98.79;101174.66;6086562;23;20095;-70
2023/07/17 04:20:09;;;;;;;5.60;5.30;;;;;;;16.58;94.54;101121.88;6104307;23;20394;-69
2023/07/17 04:22:35;;;;;;;5.60;5.30;;;;;;;17.09;88.26;101097.06;6108292;23;20014;-68
2023/07/17 04:25:03;;;;;;;5.95;5.65;;;;;;;17.79;84.90;101095.41;6113329;23;20514;-69
2023/07/17 04:27:30;;;;;;;5.95;5.57;;;;;;;18.11;81.40;101018.56;6109870;23;20040;-69
2023/07/17 04:29:57;;;;;;;5.88;5.50;;;;;;;18.82;77.97;101035.06;6105399;23;20030;-69
2023/07/17 04:32:24;;;;;;;5.85;5.50;;;;;;;19.38;75.03;101025.97;6088939;23;20783;-69
2023/07/17 04:34:50;;;;;;;5.85;5.50;;;;;;;19.63;72.49;100960.03;6111523;23;20058;-69
2023/07/17 04:37:21;;;;;;;5.90;5.40;;;;;;;19.93;68.78;100919.25;6100801;23;20032;-69
2023/07/17 04:39:48;;;;;;;16.00;15.18;;;;;;;20.03;67.17;100876.66;5995647;23;20491;-69
2023/07/17 04:42:15;;;;;;;5.85;5.47;;;;;;;19.61;66.84;100815.53;6079415;23;20029;-69
2023/07/17 04:44:43;;;;;;;6.05;5.65;;;;;;;20.43;66.83;100923.72;6105361;23;20630;-69
2023/07/17 04:47:11;;;;;;;6.28;5.75;;;;;;;20.83;65.15;100882.75;6083607;23;20013;-69
2023/07/17 04:49:37;;;;;;;6.00;5.60;;;;;;;20.75;64.28;100866.59;6109830;23;20034;-69
2023/07/17 04:52:04;;;;;;;6.35;5.95;;;;;;;21.43;63.41;100898.50;6082052;23;20187;-69
2023/07/17 04:54:31;;;;;;;5.65;5.35;;;;;;;21.29;61.60;100822.38;6088285;23;20025;-69
2023/07/17 04:56:57;;;;;;;6.10;5.70;;;;;;;21.44;61.68;100841.44;6084380;23;20510;-69
2023/07/17 04:59:23;;;;;;;5.82;5.50;;;;;;;21.98;60.58;100882.50;6108206;23;20921;-69
2023/07/17 05:01:50;;;;;;;6.13;5.70;;;;;;;22.07;59.62;100821.94;6110225;23;20605;-69
2023/07/17 05:04:16;;;;;;;5.90;5.50;;;;;;;21.92;58.82;100773.53;6112882;23;20102;-69
2023/07/17 05:06:43;;;;;;;5.97;5.65;;;;;;;22.34;58.82;100812.22;6101842;23;20658;-69
2023/07/17 05:09:09;;;;;;;7.03;6.53;;;;;;;22.42;57.18;100745.44;6111260;23;20025;-69
2023/07/17 05:11:35;;;;;;;6.13;5.65;;;;;;;22.92;57.24;100821.53;6111363;23;20040;-69
2023/07/17 05:14:02;;;;;;;6.07;5.78;;;;;;;22.49;56.50;100733.97;6081735;23;20028;-69
2023/07/17 05:16:28;;;;;;;6.18;5.68;;;;;;;22.85;56.00;100800.75;6106038;23;20088;-69
2023/07/17 05:18:55;;;;;;;6.53;6.03;;;;;;;22.47;56.26;100743.13;6085120;23;20522;-69
2023/07/17 05:21:21;;;;;;;6.45;5.95;;;;;;;21.55;59.01;100784.31;6110458;23;20032;-69
2023/07/17 05:23:48;;;;;;;6.30;6.00;;;;;;;22.27;57.98;100844.94;6109517;23;20636;-69
2023/07/17 05:26:14;;;;;;;6.22;5.70;;;;;;;23.07;55.88;100842.22;6112504;23;20013;-70
2023/07/17 05:28:40;;;;;;;5.95;5.55;;;;;;;23.22;54.30;100759.47;6114330;23;20016;-69
2023/07/17 05:31:07;;;;;;;6.40;6.00;;;;;;;22.99;54.54;100751.16;6102025;23;20081;-69
2023/07/17 05:33:33;;;;;;;6.20;5.68;;;;;;;23.02;54.07;100704.50;6108883;23;20013;-70
2023/07/17 05:36:00;;;;;;;7.18;5.88;;;;;;;23.15;53.59;100720.09;6106164;23;20029;-70
2023/07/17 05:38:26;;;;;;;5.95;5.65;;;;;;;23.55;52.36;100705.97;6111471;23;20042;-70
2023/07/17 05:40:59;;;;;;;6.05;5.72;;;;;;;23.70;52.60;100767.81;6077878;23;20101;-69
2023/07/17 05:43:26;;;;;;;6.18;5.70;;;;;;;23.69;52.16;100731.28;6108332;23;20055;-69
2023/07/17 05:45:53;;;;;;;6.45;5.97;;;;;;;23.83;51.94;100760.16;6113064;23;20049;-70
2023/07/17 05:48:19;;;;;;;6.53;6.13;;;;;;;23.99;51.33;100731.69;6114737;23;20029;-69
2023/07/17 05:50:45;;;;;;;6.38;5.93;;;;;;;24.20;51.73;100817.84;6089843;23;20133;-69
2023/07/17 05:53:12;;;;;;;6.13;5.72;;;;;;;22.98;52.66;100729.88;6112921;23;20073;-69
2023/07/17 05:55:38;;;;;;;6.38;5.97;;;;;;;23.82;51.53;100798.69;6111615;23;20623;-69
2023/07/17 05:58:05;;;;;;;6.30;5.85;;;;;;;24.41;49.93;100811.97;6111413;23;20021;-69
2023/07/17 06:00:31;;;;;;;6.43;5.93;;;;;;;24.60;49.30;100784.00;6114979;23;20025;-69
2023/07/17 06:03:00;;;;;;;6.40;6.00;;;;;;;24.94;48.54;100830.41;6082355;23;20049;-69
2023/07/17 06:05:26;;;;;;;6.63;6.05;;;;;;;25.28;47.42;100808.72;6111964;23;20021;-69
2023/07/17 06:07:53;;;;;;;8.02;6.35;;;;;;;25.39;47.96;100826.28;6082537;23;20026;-69
2023/07/17 06:10:19;;;;;;;7.40;6.70;;;;;;;24.99;47.26;100736.78;6109559;23;20006;-69
2023/07/17 06:12:46;;;;;;;7.05;6.45;;;;;;;23.96;49.03;100673.06;6088439;23;20033;-70
2023/07/17 06:15:13;;;;;;;6.28;5.88;;;;;;;24.12;49.45;100776.81;6114329;23;20756;-70
2023/07/17 06:17:40;;;;;;;6.80;6.20;;;;;;;24.34;49.42;100832.44;6087478;23;20125;-69
2023/07/17 06:20:08;;;;;;;6.72;6.22;;;;;;;24.74;48.52;100852.28;6093112;23;20573;-69
2023/07/17 06:22:35;;;;;;;6.68;6.07;;;;;;;24.89;46.39;100732.44;6120208;23;20444;-69
2023/07/17 06:25:03;;;;;;;6.43;5.93;;;;;;;24.15;47.76;100712.09;6113425;23;20072;-69
2023/07/17 06:27:30;;;;;;;6.93;6.30;;;;;;;23.42;49.25;100730.56;6114266;23;20042;-69
2023/07/17 06:29:56;;;;;;;6.00;5.60;;;;;;;23.39;49.77;100759.53;6110749;23;20547;-69
2023/07/17 06:32:22;;;;;;;7.40;6.82;;;;;;;22.31;52.29;100743.84;6075477;23;20021;-68
2023/07/17 06:34:49;;;;;;;8.10;6.38;;;;;;;22.20;53.81;100859.84;6109439;23;20096;-69
2023/07/17 06:37:16;;;;;;;6.55;6.00;;;;;;;21.75;53.63;100801.06;6109729;23;20232;-69
2023/07/17 06:39:42;;;;;;;6.70;6.10;;;;;;;21.91;54.34;100866.25;6111830;23;20595;-69
2023/07/17 06:42:10;;;;;;;6.78;6.18;;;;;;;21.57;54.78;100882.03;6112990;23;20036;-68
2023/07/17 06:44:36;;;;;;;6.32;5.78;;;;;;;21.88;54.77;100900.44;6111558;23;20029;-69
2023/07/17 06:47:02;;;;;;;7.07;6.28;;;;;;;21.95;53.97;100877.47;6082825;23;20029;-69
2023/07/17 06:49:29;;;;;;;6.32;5.93;;;;;;;21.76;55.47;100921.16;6115448;23;20013;-70
2023/07/17 06:51:55;;;;;;;6.45;6.00;;;;;;;21.51;55.04;100872.75;6108876;23;20092;-69
2023/07/17 06:54:22;;;;;;;6.40;5.90;;;;;;;21.56;55.58;100909.69;6086119;23;20038;-69
2023/07/17 06:56:48;;;;;;;6.80;6.18;;;;;;;20.95;56.07;100856.75;6079192;23;20077;-69
2023/07/17 06:59:15;;;;;;;6.72;6.32;;;;;;;20.61;55.81;100778.06;6114319;23;20122;-69
2023/07/17 07:01:42;;;;;;;6.60;6.20;;;;;;;21.56;55.53;100916.88;6082807;23;20503;-69
2023/07/17 07:04:08;;;;;;;7.53;6.80;;;;;;;21.69;55.54;100946.78;6112141;23;20029;-69
2023/07/17 07:06:35;;;;;;;6.70;6.20;;;;;;;21.61;54.32;100879.88;6085385;23;20024;-69
2023/07/17 07:09:02;;;;;;;6.63;6.13;;;;;;;21.76;55.11;100936.34;6109615;23;20032;-69
2023/07/17 07:11:28;;;;;;;6.47;6.00;;;;;;;21.91;55.62;100956.25;6110061;23;20029;-69
2023/07/17 07:13:55;;;;;;;6.78;6.28;;;;;;;21.56;55.02;100874.97;6111884;23;20529;-68
2023/07/17 07:16:21;;;;;;;7.20;6.47;;;;;;;20.98;54.36;100771.91;6106475;23;20041;-68
2023/07/17 07:18:48;;;;;;;7.10;6.43;;;;;;;21.53;55.30;100915.34;6090453;23;20033;-68
2023/07/17 07:21:14;;;;;;;7.50;6.28;;;;;;;21.07;56.37;100884.97;6084072;23;20105;-69
2023/07/17 07:23:41;;;;;;;7.03;6.43;;;;;;;21.19;55.45;100906.97;6107932;23;20021;-68
2023/07/17 07:26:07;;;;;;;6.43;5.85;;;;;;;21.70;55.29;100946.63;6084284;23;20342;-70
2023/07/17 07:28:34;;;;;;;7.00;5.97;;;;;;;21.40;53.97;100874.75;6109052;23;20080;-69
2023/07/17 07:31:02;;;;;;;6.10;5.70;;;;;;;20.98;55.82;100872.47;6106262;23;20109;-69
2023/07/17 07:33:28;;;;;;;6.63;6.13;;;;;;;21.48;55.04;100914.94;6112376;23;20014;-69
2023/07/17 07:35:55;;;;;;;8.20;6.22;;;;;;;21.63;54.11;100891.25;6110334;23;20023;-69
2023/07/17 07:38:21;;;;;;;8.15;6.53;;;;;;;21.52;54.16;100854.91;6106712;23;20515;-69
2023/07/17 07:40:49;;;;;;;6.72;6.30;;;;;;;21.40;54.13;100864.91;6110362;23;20033;-69
2023/07/17 07:43:15;;;;;;;7.30;6.70;;;;;;;21.43;52.88;100821.94;6107667;23;20625;-72
2023/07/17 07:45:42;;;;;;;7.65;6.25;;;;;;;21.38;53.40;100850.84;6107699;23;20041;-68
2023/07/17 07:48:08;;;;;;;7.35;6.85;;;;;;;21.49;52.93;100855.22;6103698;23;20653;-68
2023/07/17 07:50:35;;;;;;;7.00;6.43;;;;;;;21.05;52.79;100758.84;6110521;23;20016;-68
2023/07/17 07:53:01;;;;;;;6.75;6.15;;;;;;;21.31;51.93;100775.03;6111256;23;20503;-70
2023/07/17 07:55:28;;;;;;;6.53;5.97;;;;;;;21.51;52.74;100853.25;6079709;23;20018;-68
2023/07/17 07:57:54;;;;;;;7.22;6.47;;;;;;;21.71;53.39;100888.72;6110843;23;20092;-67
2023/07/17 08:00:21;;;;;;;6.78;6.18;;;;;;;21.99;51.62;100869.97;6110410;23;20166;-67
2023/07/17 08:02:47;;;;;;;6.82;6.32;;;;;;;22.19;51.61;100868.88;6111068;23;20022;-68
2023/07/17 08:05:14;;;;;;;8.00;6.35;;;;;;;22.56;51.50;100931.25;6112212;23;20017;-68
2023/07/17 08:07:41;;;;;;;7.68;6.97;;;;;;;22.42;51.14;100898.69;6110224;23;20468;-70
2023/07/17 08:10:08;;;;;;;6.60;6.10;;;;;;;22.63;51.53;100914.47;6110965;23;20013;-68
2023/07/17 08:12:34;;;;;;;7.47;6.40;;;;;;;22.08;51.92;100856.56;6088009;23;20549;-67
2023/07/17 08:15:01;;;;;;;7.47;6.55;;;;;;;22.07;51.50;100852.22;6105828;23;20075;-67
2023/07/17 08:17:27;;;;;;;7.13;6.50;;;;;;;22.45;50.22;100854.75;6107513;23;20100;-67
2023/07/17 08:19:53;;;;;;;6.70;6.20;;;;;;;22.05;48.93;100685.81;6106417;23;20261;-67
2023/07/17 08:22:20;;;;;;;17.40;6.93;;;;;;;21.96;49.43;100745.53;6080088;23;20010;-69
2023/07/17 08:24:46;;;;;;;5.63;5.32;;;;;;;21.76;49.84;100728.81;6093515;23;20640;-69
2023/07/17 08:27:13;;;;;;;7.13;6.50;;;;;;;22.15;50.31;100830.06;6091777;23;20101;-67
2023/07/17 08:29:39;;;;;;;6.50;6.00;;;;;;;22.40;49.62;100816.94;6109038;23;20049;-67
2023/07/17 08:32:06;;;;;;;6.85;6.07;;;;;;;22.49;48.85;100818.69;6112012;23;20065;-67
2023/07/17 08:34:32;;;;;;;6.35;5.75;;;;;;;22.33;49.57;100800.69;6112721;23;20018;-67
2023/07/17 08:36:59;;;;;;;6.60;6.00;;;;;;;22.46;47.51;100731.59;6111504;23;20021;-67
2023/07/17 08:39:25;;;;;;;6.13;5.63;;;;;;;22.37;47.81;100716.50;6113772;23;20031;-69
2023/07/17 08:41:52;;;;;;;6.43;5.93;;;;;;;22.35;48.09;100771.09;6106410;23;20475;-68
2023/07/17 08:44:19;;;;;;;6.53;6.03;;;;;;;;;;6109049;23;20547;-67
2023/07/17 08:46:47;;;;;;;7.28;6.30;;;;;;;21.80;48.37;100686.59;6108198;23;20096;-68
2023/07/17 08:49:18;;;;;;;6.45;5.90;;;;;;;21.96;48.97;100777.59;6110227;23;20025;-67
2023/07/17 08:51:49;;;;;;;6.35;5.85;;;;;;;22.69;47.43;100797.94;6108403;23;20010;-68
2023/07/17 08:54:16;;;;;;;7.03;6.40;;;;;;;21.99;47.83;100699.81;6110198;23;20033;-70
2023/07/17 08:56:58;;;;;;;7.15;6.50;;;;;;;22.44;48.10;100786.22;6080860;23;20085;-67
2023/07/17 08:59:25;;;;;;;6.65;5.95;;;;;;;22.46;48.54;100821.69;6113378;23;20099;-68
2023/07/17 09:01:52;;;;;;;6.68;6.10;;;;;;;22.93;47.84;100855.28;6101928;23;20077;-67
2023/07/17 09:04:19;;;;;;;6.05;5.55;;;;;;;22.79;47.51;100796.03;6090713;23;20079;-66
2023/07/17 09:06:46;;;;;;;7.05;6.40;;;;;;;22.97;47.34;100801.28;6110276;23;20029;-68
2023/07/17 09:09:12;;;;;;;6.80;6.22;;;;;;;23.14;47.83;100836.25;6071007;23;20029;-67
2023/07/17 09:11:39;;;;;;;6.65;6.15;;;;;;;23.33;47.34;100851.22;6110932;23;20018;-68
2023/07/17 09:14:07;;;;;;;7.85;6.28;;;;;;;23.56;46.98;100891.69;6110419;23;20084;-68
2023/07/17 09:16:34;;;;;;;8.38;6.15;;;;;;;23.65;46.80;100829.94;6109465;23;20029;-68
2023/07/17 09:19:00;;;;;;;6.72;6.22;;;;;;;23.34;46.78;100802.84;6109032;23;20406;-68
2023/07/17 09:21:27;;;;;;;6.75;6.22;;;;;;;23.00;47.44;100776.91;6116696;23;20025;-68
2023/07/17 09:23:56;;;;;;;7.15;6.45;;;;;;;23.60;47.43;100946.63;6090940;23;20028;-67
2023/07/17 09:26:28;;;;;;;7.15;6.47;;;;;;;23.85;46.75;100851.13;6106153;23;20011;-68
2023/07/17 09:28:57;;;;;;;8.48;6.18;;;;;;;23.97;46.13;100898.06;6086931;23;20041;-68
2023/07/17 09:31:28;;;;;;;6.60;6.00;;;;;;;23.92;46.00;100830.72;6113007;23;20037;-68
2023/07/17 09:33:56;;;;;;;6.85;6.15;;;;;;;23.75;46.67;100883.38;6086577;23;20034;-68
2023/07/17 09:36:23;;;;;;;6.55;6.05;;;;;;;23.77;45.58;100787.63;6108761;23;20045;-69
2023/07/17 09:38:54;;;;;;;7.45;6.55;;;;;;;24.21;45.71;100916.06;6112367;23;20684;-68
2023/07/17 09:41:26;;;;;;;6.70;6.10;;;;;;;24.67;44.01;100891.50;6117248;23;20029;-69
2023/07/17 09:44:03;;;;;;;8.02;6.25;;;;;;;23.87;44.64;100761.53;6084176;23;20144;-69
2023/07/17 09:46:32;;;;;;;13.93;6.30;;;;;;;23.99;45.28;100838.94;6110930;23;20036;-68
2023/07/17 09:48:59;;;;;;;6.65;6.15;;;;;;;23.52;45.58;100761.75;6082520;23;20026;-68
2023/07/17 09:51:26;;;;;;;6.60;6.13;;;;;;;23.88;45.38;100829.38;6106902;23;20099;-67
2023/07/17 09:53:52;;;;;;;6.63;6.13;;;;;;;23.87;44.54;100763.34;6114120;23;20021;-68
2023/07/17 09:56:20;;;;;;;7.15;6.55;;;;;;;23.96;44.92;100799.06;6093175;23;20026;-68
2023/07/17 09:58:48;;;;;;;7.22;6.53;;;;;;;23.76;45.19;100759.13;6111930;23;20036;-68
2023/07/17 10:01:19;;;;;;;6.57;6.05;;;;;;;23.24;45.47;100760.13;6114108;23;20080;-68
2023/07/17 10:03:48;;;;;;;7.30;6.70;;;;;;;23.07;45.39;100710.19;6086128;23;20017;-69
2023/07/17 10:06:19;;;;;;;9.60;6.43;;;;;;;23.50;46.72;100853.81;6112822;23;20666;-68
2023/07/17 10:08:50;;;;;;;7.40;6.65;;;;;;;23.63;46.16;100858.75;6111148;23;20041;-70
2023/07/17 10:11:18;;;;;;;7.40;6.50;;;;;;;23.85;45.65;100862.72;6087247;23;20078;-68
2023/07/17 10:13:47;;;;;;;7.47;6.25;;;;;;;24.04;44.36;100799.06;6113119;23;20060;-68
2023/07/17 10:16:18;;;;;;;7.32;6.43;;;;;;;23.83;45.43;100797.69;6113179;23;20017;-68
2023/07/17 10:18:54;;;;;;;7.07;6.55;;;;;;;24.37;45.02;100877.72;6115173;23;20025;-68
2023/07/17 10:21:21;;;;;;;6.85;6.18;;;;;;;24.53;43.19;100798.28;6116332;23;20054;-69
2023/07/17 10:23:50;;;;;;;6.60;6.00;;;;;;;24.15;43.83;100696.84;6109860;23;20616;-68
2023/07/17 10:26:20;;;;;;;6.93;6.22;;;;;;;24.28;43.77;100779.47;6112544;23;20022;-68
2023/07/17 10:28:54;;;;;;;6.82;6.32;;;;;;;24.41;43.14;100781.66;6113999;23;20096;-69
2023/07/17 10:31:23;;;;;;;7.25;6.50;;;;;;;24.93;43.13;100840.31;6114674;23;20013;-69
2023/07/17 10:33:51;;;;;;;7.53;6.80;;;;;;;24.44;43.59;100775.97;6112936;23;20045;-68
2023/07/17 10:36:35;;;;;;;6.68;6.05;;;;;;;24.41;43.49;100805.78;6110338;23;20459;-68
2023/07/17 10:39:04;;;;;;;6.70;6.20;;;;;;;24.96;44.16;100912.47;6115354;23;20035;-68
2023/07/17 10:41:30;;;;;;;7.28;6.30;;;;;;;24.65;43.02;100802.28;6112398;23;20017;-69
2023/07/17 10:44:03;;;;;;;6.65;6.07;;;;;;;23.91;43.19;100697.69;6087033;23;20110;-69
2023/07/17 10:46:44;;;;;;;7.97;6.85;;;;;;;23.60;44.27;100730.44;6116706;23;20029;-68
2023/07/17 10:49:14;;;;;;;6.93;6.32;;;;;;;24.18;44.26;100830.59;6089106;23;20022;-68
2023/07/17 10:51:43;;;;;;;7.22;6.63;;;;;;;24.52;43.29;100796.63;6108465;23;20020;-68
2023/07/17 10:54:11;;;;;;;11.38;6.20;;;;;;;24.93;42.22;100837.63;6110988;23;20633;-69
2023/07/17 10:56:37;;;;;;;6.78;6.28;;;;;;;24.54;41.90;100722.16;6103731;23;20025;-69
2023/07/17 10:59:04;;;;;;;7.32;6.35;;;;;;;24.16;41.59;100681.59;6092570;23;20029;-68
2023/07/17 11:01:31;;;;;;;6.40;5.90;;;;;;;24.12;41.64;100707.09;6113724;23;20040;-68
2023/07/17 11:03:58;;;;;;;7.30;6.60;;;;;;;24.55;41.95;100767.56;6091330;23;20021;-69
2023/07/17 11:06:26;;;;;;;6.65;6.15;;;;;;;24.93;41.54;100791.16;6109068;23;20021;-69
2023/07/17 11:08:54;;;;;;;7.47;6.78;;;;;;;25.92;41.11;100936.81;6108569;23;20041;-70
2023/07/17 11:11:21;;;;;;;9.75;6.38;;;;;;;26.18;39.65;100872.81;6068830;23;20030;-69
2023/07/17 11:13:49;;;;;;;7.20;6.50;;;;;;;26.21;38.83;100737.91;6112607;23;20033;-68
2023/07/17 11:16:16;;;;;;;6.97;6.45;;;;;;;25.26;40.57;100738.22;6112622;23;20040;-68
2023/07/17 11:18:42;;;;;;;9.40;6.32;;;;;;;25.68;41.40;100874.06;6113307;23;20028;-68
2023/07/17 11:21:09;;;;;;;7.40;6.68;;;;;;;25.02;41.98;100782.91;6108408;23;20009;-68
2023/07/17 11:23:35;;;;;;;8.45;6.60;;;;;;;25.52;41.17;100856.16;6109660;23;20029;-68